Olympic National Park, WA

04:00 PM PDT am 30. März 2015 (GMT -0700)
Foothills | | Change Station
CLOSE
Current Station
Persönliche Wetterstationen
Location: Old Mill & Simmons Port Angeles, WA
Höhe: 955 ft
Wetterstationen in der Umgebung

Höhe 955 ft 48.08 °N, 123.45 °W | Updated 17 seconds ago

Teils Wolkig
Teils Wolkig
55.7 °F
gefühlte 55.7 °F
N
0.0
Wind Wechselnd Wind aus Nordwest
Gusts 1.0 mph

Heute
Max. -- | schwach -- °F
--% Regenrisiko
Gestern
Max. -- | schwach -- °F
Precip. -- inch
6:56 AM 7:41 PM
Zweites Viertel, 82% visible
Druck 29.91 inch
Sichtweite 10.0 Meilen
Wolken Heiter
Taupunkt 46 °F
Feuchtigkeit 71%
Regen 0.00 inch
Schneehöhe Nicht verfügbar..
UV 4 von 12
Pollen 9.40 von 12
Luftqualität Nicht verfügbar..
Flu Activity Nicht verfügbar..
METAR KCLM 302253Z AUTO 35006KT 10SM CLR 14/09 A2991 RMK AO2 SLP129 T01440089

More Conditions Fewer Conditions

Druck 29.91 inch
Sichtweite 10.0 Meilen
Wolken Heiter
Taupunkt 46 °F
Feuchtigkeit 71%
Regen 0.00 inch
Schneehöhe Nicht verfügbar..
UV 4 von 12
Pollen 9.40 von 12
Luftqualität Nicht verfügbar..
Flu Activity Nicht verfügbar..
METAR KCLM 302253Z AUTO 35006KT 10SM CLR 14/09 A2991 RMK AO2 SLP129 T01440089

More Conditions Fewer Conditions

10-Day Weather Forecast

Almanac

Astronomie

Mar. 30, 2015 Aufgang Untergang
Genaue Zeit
Bürgerliche Dämmerung
Nautische Dämmerung
Astronomische Dämmerung
Mond
Länge des sichtbaren Lichts
Tageslänge
Tomorrow will be .
, % of the Moon is Illuminated

Heutige Rekorde

State Highs State Lows

Community

WunderPhotos

Upload Photos

1,809,617 Fotos hochgeladen!

WunderBlogs® & News

Nearby

Luftqualität

  Luftqualität LQ Index Schadstoff
Not available.

Schneehöhe

Station Depth Höhe

Erdbebenaktivität

Stadt Distance Mag. Time & Date
Minimum magnitude displayed is 2.5.

küstennahe Wassertemperaturen

Ort Temperatur

Stations

Wetterstationen in der Umgebung

Stationsstandort Temp. Windchill Taupunkt Feuchtigkeit Wind Precip. Höhe Aktualisiert Art